Terminal Aerodrome Forecast
Issued by NWS

Home | Current Version | Previous Version | Text Only | Print | Product List | Glossary On
Versions: 1 2 3 4 5 6 7 8 9 10 11 12 13 14
000
FTUS41 KAKQ 141100
TAFPHF
TAF
KPHF 141120Z 1412/1512 21010KT P6SM BKN250
     FM141700 22012G20KT P6SM BKN060 BKN250
     FM142300 22010KT P6SM SCT150 BKN250=

USA.gov is the U.S. government's official web portal to all federal, state and local government web resources and services.